Time;durP1;ratioP1;P1;durP2;ratioP2;P2;SDS_P1;SDS_P2;PMS_P1;PMS_P2;Temp;Humidity;BMP_temperature;BMP_pressure;BME280_temperature;BME280_humidity;BME280_pressure;Samples;Min_cycle;Max_cycle;Signal;HPM_P1;HPM_P2
2021/10/02 00:34:18;;;;;;;5.45;3.78;;;;;;;;;;5012507;28;20129;-49
2021/10/02 00:37:24;;;;;;;6.30;4.00;;;;;;;;;;5012336;28;20046;-49
2021/10/02 00:45:00;;;;;;;7.80;4.03;;;;;;;;;;5010405;28;20129;-46
2021/10/02 00:47:28;;;;;;;5.80;3.85;;;;;;;;;;5011429;28;20517;-46
2021/10/02 00:49:56;;;;;;;5.80;3.47;;;;;;;;;;5012229;28;20037;-47
2021/10/02 00:52:23;;;;;;;5.70;3.67;;;;;;;;;;5012496;28;20038;-46
2021/10/02 00:54:50;;;;;;;5.65;4.10;;;;;;;;;;5013200;28;20034;-50
2021/10/02 00:57:17;;;;;;;6.55;3.75;;;;;;;;;;5011957;28;20045;-45
2021/10/02 00:59:45;;;;;;;5.20;3.80;;;;;;;;;;5010932;28;20137;-49
2021/10/02 01:02:15;;;;;;;6.82;3.55;;;;;;;;;;5012252;28;20048;-47
2021/10/02 01:04:57;;;;;;;8.15;3.95;;;;;;;;;;5013298;28;20046;-48
2021/10/02 01:07:30;;;;;;;5.70;3.70;;;;;;;;;;5010716;28;20136;-47
2021/10/02 01:09:59;;;;;;;5.35;3.08;;;;;;;;;;5011615;28;20121;-47
2021/10/02 01:12:38;;;;;;;6.40;3.78;;;;;;;;;;5012755;28;20066;-48
2021/10/02 01:15:07;;;;;;;5.50;3.75;;;;;;;;;;5012461;28;20045;-47
2021/10/02 01:17:44;;;;;;;6.00;3.50;;;;;;;;;;5005337;28;20474;-48
2021/10/02 01:20:24;;;;;;;6.07;3.90;;;;;;;;;;5012937;28;20551;-47
2021/10/02 01:22:55;;;;;;;5.97;3.83;;;;;;;;;;5011786;28;20132;-46
2021/10/02 01:25:34;;;;;;;5.60;3.80;;;;;;;;;;5006729;28;20124;-45
2021/10/02 01:28:06;;;;;;;5.50;3.78;;;;;;;;;;5009527;28;20080;-48
2021/10/02 01:36:10;;;;;;;12.55;3.95;;;;;;;;;;5009610;28;20044;-46
2021/10/02 01:47:12;;;;;;;7.47;3.78;;;;;;;;;;5000545;28;20085;-46
2021/10/02 01:49:50;;;;;;;5.13;3.45;;;;;;;;;;5011348;28;20058;-46
2021/10/02 01:52:20;;;;;;;7.43;3.83;;;;;;;;;;5008693;28;20212;-47
2021/10/02 01:54:47;;;;;;;5.20;3.58;;;;;;;;;;5010255;28;20140;-48
2021/10/02 01:57:14;;;;;;;6.70;3.88;;;;;;;;;;5010536;28;20046;-47
2021/10/02 01:59:41;;;;;;;5.95;4.22;;;;;;;;;;5010090;28;20455;-46
2021/10/02 02:02:09;;;;;;;6.47;3.72;;;;;;;;;;5010972;28;20044;-47
2021/10/02 02:04:39;;;;;;;5.50;3.53;;;;;;;;;;5011041;28;20062;-48
2021/10/02 02:07:06;;;;;;;4.70;3.40;;;;;;;;;;5010503;28;20049;-47
2021/10/02 02:09:37;;;;;;;8.07;4.25;;;;;;;;;;5004522;28;20084;-47
2021/10/02 02:12:10;;;;;;;5.22;3.80;;;;;;;;;;5004264;28;20049;-46
2021/10/02 02:14:37;;;;;;;6.32;3.78;;;;;;;;;;5012924;28;20121;-45
2021/10/02 02:17:05;;;;;;;5.90;3.83;;;;;;;;;;5010175;28;20482;-46
2021/10/02 02:19:32;;;;;;;6.82;3.20;;;;;;;;;;5010427;28;20486;-46
2021/10/02 02:21:59;;;;;;;6.15;3.35;;;;;;;;;;5012009;28;20041;-47
2021/10/02 02:24:27;;;;;;;5.85;3.72;;;;;;;;;;5008906;28;20140;-48
2021/10/02 02:26:53;;;;;;;5.50;3.63;;;;;;;;;;5010412;28;20045;-48
2021/10/02 02:29:20;;;;;;;5.05;3.50;;;;;;;;;;5007928;28;20056;-47
2021/10/02 02:31:48;;;;;;;4.85;3.70;;;;;;;;;;5011965;28;20129;-49
2021/10/02 02:34:15;;;;;;;5.47;3.70;;;;;;;;;;5010090;28;20045;-46
2021/10/02 02:36:42;;;;;;;5.00;3.53;;;;;;;;;;5006151;28;20100;-50
2021/10/02 02:39:09;;;;;;;7.75;3.90;;;;;;;;;;5010239;28;20112;-47
2021/10/02 02:41:35;;;;;;;7.55;3.63;;;;;;;;;;5010492;28;20050;-48
2021/10/02 02:44:03;;;;;;;5.22;3.50;;;;;;;;;;5010929;28;20129;-47
2021/10/02 02:46:31;;;;;;;6.35;3.78;;;;;;;;;;5017021;28;20426;-46
2021/10/02 02:48:58;;;;;;;5.15;3.40;;;;;;;;;;5010379;28;20442;-48
2021/10/02 02:51:27;;;;;;;6.53;3.60;;;;;;;;;;5011835;28;20061;-46
2021/10/02 02:54:12;;;;;;;5.43;3.60;;;;;;;;;;5009095;28;20034;-47
2021/10/02 02:56:43;;;;;;;4.90;3.30;;;;;;;;;;5009540;28;20107;-49
2021/10/02 02:59:17;;;;;;;5.40;3.35;;;;;;;;;;5006680;28;20038;-47
2021/10/02 03:01:46;;;;;;;5.55;3.88;;;;;;;;;;5009781;28;20171;-46
2021/10/02 03:04:15;;;;;;;6.80;4.13;;;;;;;;;;5010332;28;20034;-46
2021/10/02 03:06:47;;;;;;;6.88;4.00;;;;;;;;;;5008597;28;21719;-50
2021/10/02 03:09:15;;;;;;;5.73;3.50;;;;;;;;;;5029274;22;20041;-47
2021/10/02 03:11:44;;;;;;;5.63;3.72;;;;;;;;;;5048335;28;20132;-46
2021/10/02 03:14:11;;;;;;;5.70;3.67;;;;;;;;;;5040556;28;20052;-46
2021/10/02 03:16:38;;;;;;;5.47;3.33;;;;;;;;;;5048894;28;20094;-48
2021/10/02 03:19:06;;;;;;;4.53;3.17;;;;;;;;;;5045134;28;20060;-49
2021/10/02 03:21:34;;;;;;;6.50;3.38;;;;;;;;;;5049662;28;20466;-46
2021/10/02 03:24:02;;;;;;;5.18;3.20;;;;;;;;;;5046145;28;20059;-45
2021/10/02 03:26:30;;;;;;;7.55;3.05;;;;;;;;;;5030074;28;20033;-49
2021/10/02 03:28:58;;;;;;;4.85;3.25;;;;;;;;;;5041781;28;20095;-46
2021/10/02 03:31:25;;;;;;;4.60;3.17;;;;;;;;;;5057714;28;20049;-44
2021/10/02 03:33:53;;;;;;;6.53;3.45;;;;;;;;;;5049480;28;20033;-44
2021/10/02 03:36:20;;;;;;;5.47;3.20;;;;;;;;;;5048313;28;20075;-48
2021/10/02 03:38:47;;;;;;;4.78;3.13;;;;;;;;;;5039807;28;20141;-45
2021/10/02 03:41:13;;;;;;;7.25;3.25;;;;;;;;;;5049122;28;20040;-44
2021/10/02 03:43:40;;;;;;;4.63;3.33;;;;;;;;;;5047546;28;20486;-47
2021/10/02 03:46:07;;;;;;;5.25;3.28;;;;;;;;;;5046031;28;20098;-44
2021/10/02 03:48:34;;;;;;;4.75;3.08;;;;;;;;;;5044736;28;20506;-48
2021/10/02 03:51:01;;;;;;;4.35;2.90;;;;;;;;;;5047345;28;20037;-46
2021/10/02 03:53:29;;;;;;;7.85;3.13;;;;;;;;;;5035310;28;20603;-45
2021/10/02 03:55:59;;;;;;;5.35;3.20;;;;;;;;;;5046733;28;20502;-48
2021/10/02 03:58:26;;;;;;;7.50;3.33;;;;;;;;;;5050032;28;20037;-49
2021/10/02 04:00:53;;;;;;;5.97;3.78;;;;;;;;;;5044974;28;20052;-45
2021/10/02 04:03:20;;;;;;;5.65;3.65;;;;;;;;;;5046538;28;20056;-46
2021/10/02 04:05:47;;;;;;;5.10;3.35;;;;;;;;;;5048103;28;20090;-49
2021/10/02 04:08:14;;;;;;;5.50;3.33;;;;;;;;;;5045526;28;20055;-48
2021/10/02 04:10:40;;;;;;;4.90;3.10;;;;;;;;;;5044162;28;20076;-44
2021/10/02 04:13:07;;;;;;;4.85;3.20;;;;;;;;;;5046779;28;20039;-47
2021/10/02 04:15:34;;;;;;;4.53;3.35;;;;;;;;;;5046556;28;20037;-47
2021/10/02 04:18:02;;;;;;;5.15;3.80;;;;;;;;;;5049406;28;20049;-46
2021/10/02 04:20:29;;;;;;;6.85;3.60;;;;;;;;;;5042141;28;20119;-44
2021/10/02 04:22:55;;;;;;;6.18;3.50;;;;;;;;;;5041914;28;20411;-44
2021/10/02 04:25:22;;;;;;;10.63;3.58;;;;;;;;;;5032116;28;20574;-43
2021/10/02 04:27:49;;;;;;;5.78;3.47;;;;;;;;;;5046449;28;20128;-43
2021/10/02 04:30:16;;;;;;;6.53;3.65;;;;;;;;;;5045610;28;20156;-48
2021/10/02 04:32:43;;;;;;;5.43;3.42;;;;;;;;;;5047777;28;20354;-47
2021/10/02 04:35:09;;;;;;;6.18;3.92;;;;;;;;;;5046672;28;20521;-46
2021/10/02 04:37:36;;;;;;;5.70;3.38;;;;;;;;;;5044857;28;20037;-47
2021/10/02 04:40:03;;;;;;;7.60;3.55;;;;;;;;;;5037679;28;20048;-45
2021/10/02 04:42:30;;;;;;;6.53;3.60;;;;;;;;;;5033140;28;20057;-45
2021/10/02 04:44:57;;;;;;;5.25;3.33;;;;;;;;;;5047867;28;20041;-46
2021/10/02 04:47:26;;;;;;;5.30;3.55;;;;;;;;;;5049446;28;20146;-47
2021/10/02 04:49:53;;;;;;;6.03;3.70;;;;;;;;;;5051341;28;20116;-46
2021/10/02 04:52:20;;;;;;;4.97;3.35;;;;;;;;;;5051846;28;20043;-46
2021/10/02 04:54:46;;;;;;;4.82;3.50;;;;;;;;;;5051355;28;20067;-46
2021/10/02 04:57:13;;;;;;;4.95;3.50;;;;;;;;;;5049702;28;20040;-45
2021/10/02 04:59:40;;;;;;;4.95;3.55;;;;;;;;;;5049369;28;20055;-47
2021/10/02 05:02:07;;;;;;;6.25;3.58;;;;;;;;;;5051346;28;20040;-47
2021/10/02 05:04:34;;;;;;;7.18;3.70;;;;;;;;;;5049700;28;20474;-47
2021/10/02 05:07:00;;;;;;;7.45;3.88;;;;;;;;;;5049996;28;20480;-46
2021/10/02 05:09:27;;;;;;;5.65;3.63;;;;;;;;;;5046740;28;20083;-46
2021/10/02 05:11:54;;;;;;;4.65;3.47;;;;;;;;;;5051677;28;20517;-47
2021/10/02 05:14:21;;;;;;;5.07;3.15;;;;;;;;;;5049848;28;20044;-47
2021/10/02 05:16:49;;;;;;;7.72;3.47;;;;;;;;;;5052548;28;20068;-46
2021/10/02 05:19:16;;;;;;;5.90;3.72;;;;;;;;;;5043454;28;21393;-47
2021/10/02 05:21:42;;;;;;;8.27;3.80;;;;;;;;;;5052278;28;20051;-45
2021/10/02 05:24:09;;;;;;;4.88;3.42;;;;;;;;;;5047956;28;20051;-48
2021/10/02 05:26:36;;;;;;;7.28;3.60;;;;;;;;;;5052691;28;20052;-47
2021/10/02 05:29:03;;;;;;;6.45;3.38;;;;;;;;;;5045812;28;20128;-48
2021/10/02 05:31:30;;;;;;;6.35;3.38;;;;;;;;;;5052135;28;20672;-47
2021/10/02 05:33:56;;;;;;;5.32;3.53;;;;;;;;;;5049459;28;20041;-48
2021/10/02 05:36:23;;;;;;;5.78;3.85;;;;;;;;;;5039310;28;20041;-46
2021/10/02 05:38:50;;;;;;;5.75;4.10;;;;;;;;;;5047144;28;20064;-47
2021/10/02 05:41:17;;;;;;;6.13;4.15;;;;;;;;;;5048786;28;20045;-47
2021/10/02 05:43:43;;;;;;;7.90;4.25;;;;;;;;;;5049497;28;20446;-46
2021/10/02 05:46:10;;;;;;;6.40;4.18;;;;;;;;;;5051714;28;20055;-47
2021/10/02 05:48:37;;;;;;;7.22;4.45;;;;;;;;;;5049320;28;20102;-47
2021/10/02 05:51:04;;;;;;;8.68;4.13;;;;;;;;;;5050686;28;20041;-47
2021/10/02 05:53:31;;;;;;;7.10;3.58;;;;;;;;;;5050816;28;20487;-48
2021/10/02 05:55:58;;;;;;;6.13;4.20;;;;;;;;;;5043905;28;20059;-46
2021/10/02 05:58:25;;;;;;;7.70;4.03;;;;;;;;;;5046120;28;20066;-46
2021/10/02 06:00:52;;;;;;;7.47;4.32;;;;;;;;;;5045576;28;20047;-48
2021/10/02 06:03:19;;;;;;;5.03;3.70;;;;;;;;;;5049173;28;20037;-48
2021/10/02 06:05:45;;;;;;;7.15;3.90;;;;;;;;;;5049249;28;20045;-46
2021/10/02 06:08:12;;;;;;;8.38;3.58;;;;;;;;;;5047876;28;20044;-47
2021/10/02 06:10:39;;;;;;;6.03;3.67;;;;;;;;;;5049098;28;20114;-47
2021/10/02 06:13:07;;;;;;;5.82;3.70;;;;;;;;;;5049952;28;20448;-47
2021/10/02 06:15:33;;;;;;;6.72;4.70;;;;;;;;;;5043253;28;20037;-47
2021/10/02 06:18:00;;;;;;;8.65;4.05;;;;;;;;;;5044761;28;20124;-47
2021/10/02 06:20:27;;;;;;;5.55;3.67;;;;;;;;;;5047726;28;20094;-48
2021/10/02 06:22:54;;;;;;;7.22;3.53;;;;;;;;;;5050254;28;20042;-46
2021/10/02 06:25:21;;;;;;;7.28;3.75;;;;;;;;;;5049563;28;20136;-47
2021/10/02 06:27:51;;;;;;;5.13;3.47;;;;;;;;;;5038854;28;20036;-46
2021/10/02 06:30:18;;;;;;;5.57;4.05;;;;;;;;;;5046514;28;20037;-46
2021/10/02 06:32:44;;;;;;;6.60;4.13;;;;;;;;;;5050845;28;20033;-48
2021/10/02 06:35:11;;;;;;;5.95;4.18;;;;;;;;;;5044866;28;20033;-46
2021/10/02 06:37:38;;;;;;;5.82;3.40;;;;;;;;;;5044384;28;20047;-46
2021/10/02 06:40:06;;;;;;;5.43;3.45;;;;;;;;;;5046522;28;20044;-45
2021/10/02 06:42:33;;;;;;;5.20;3.63;;;;;;;;;;5046395;28;20127;-46
2021/10/02 06:45:00;;;;;;;6.38;3.90;;;;;;;;;;5039785;28;22153;-46
2021/10/02 06:47:27;;;;;;;8.07;4.03;;;;;;;;;;5044296;28;20037;-46
2021/10/02 06:49:57;;;;;;;6.88;3.85;;;;;;;;;;5044008;28;20041;-47
2021/10/02 06:52:27;;;;;;;7.43;3.47;;;;;;;;;;5048628;28;20502;-50
2021/10/02 06:54:55;;;;;;;6.53;4.25;;;;;;;;;;5031671;28;20033;-46
2021/10/02 06:57:22;;;;;;;8.20;4.07;;;;;;;;;;5044624;28;20730;-47
2021/10/02 06:59:49;;;;;;;5.85;3.60;;;;;;;;;;5044780;28;20063;-46
2021/10/02 07:02:16;;;;;;;6.07;3.83;;;;;;;;;;5044546;28;20468;-46
2021/10/02 07:04:45;;;;;;;5.60;3.88;;;;;;;;;;5043462;28;20430;-48
2021/10/02 07:07:11;;;;;;;7.47;3.63;;;;;;;;;;5051762;28;20047;-47
2021/10/02 07:09:38;;;;;;;7.95;3.60;;;;;;;;;;5045198;28;20378;-46
2021/10/02 07:12:05;;;;;;;8.48;4.00;;;;;;;;;;5053288;28;20037;-47
2021/10/02 07:14:32;;;;;;;7.38;3.78;;;;;;;;;;5060094;28;20123;-47
2021/10/02 07:16:58;;;;;;;7.68;4.28;;;;;;;;;;5055693;28;20050;-46
2021/10/02 07:19:25;;;;;;;6.22;3.78;;;;;;;;;;5047069;28;20041;-47
2021/10/02 07:21:52;;;;;;;7.13;4.13;;;;;;;;;;5046522;28;20040;-45
2021/10/02 07:24:19;;;;;;;7.78;3.72;;;;;;;;;;5054347;28;20071;-46
2021/10/02 07:26:46;;;;;;;7.03;3.72;;;;;;;;;;5054767;28;20043;-46
2021/10/02 07:29:12;;;;;;;8.45;3.75;;;;;;;;;;5042597;28;20120;-46
2021/10/02 07:31:39;;;;;;;7.30;3.92;;;;;;;;;;5041453;28;20808;-48
2021/10/02 07:34:06;;;;;;;6.38;3.42;;;;;;;;;;5045218;28;20048;-49
2021/10/02 07:36:33;;;;;;;5.47;3.50;;;;;;;;;;5042624;28;20502;-47
2021/10/02 07:39:00;;;;;;;5.63;3.35;;;;;;;;;;5049495;28;20071;-47
2021/10/02 07:41:28;;;;;;;6.18;3.25;;;;;;;;;;5044680;28;20176;-46
2021/10/02 07:43:57;;;;;;;5.55;3.28;;;;;;;;;;5044799;28;21063;-46
2021/10/02 07:46:25;;;;;;;7.18;3.60;;;;;;;;;;5009693;28;20046;-44
2021/10/02 07:48:52;;;;;;;6.80;3.40;;;;;;;;;;5028135;28;20074;-46
2021/10/02 07:51:20;;;;;;;8.15;3.80;;;;;;;;;;5044125;28;20041;-45
2021/10/02 07:53:49;;;;;;;7.68;3.85;;;;;;;;;;5044459;28;20121;-46
2021/10/02 07:56:17;;;;;;;7.30;4.38;;;;;;;;;;5038640;28;20108;-46
2021/10/02 07:58:45;;;;;;;7.15;3.97;;;;;;;;;;5045635;28;20521;-44
2021/10/02 08:01:12;;;;;;;7.00;4.57;;;;;;;;;;5046642;28;20045;-45
2021/10/02 08:03:40;;;;;;;7.68;4.22;;;;;;;;;;5047971;28;20064;-45
2021/10/02 08:06:07;;;;;;;6.43;4.20;;;;;;;;;;5047682;28;20428;-45
2021/10/02 08:08:34;;;;;;;6.53;3.78;;;;;;;;;;5046059;28;20077;-48
2021/10/02 08:11:03;;;;;;;8.15;4.45;;;;;;;;;;5074751;28;20041;-48
2021/10/02 08:13:30;;;;;;;7.38;4.30;;;;;;;;;;5050242;28;20111;-47
2021/10/02 08:15:57;;;;;;;6.95;4.47;;;;;;;;;;5042252;28;20120;-50
2021/10/02 08:18:26;;;;;;;7.65;4.70;;;;;;;;;;5048514;28;20049;-45
2021/10/02 08:20:54;;;;;;;7.63;5.00;;;;;;;;;;5050306;28;20518;-46
2021/10/02 08:23:21;;;;;;;8.27;4.80;;;;;;;;;;5059512;28;20041;-45
2021/10/02 08:25:49;;;;;;;6.90;4.90;;;;;;;;;;5034678;28;20072;-48
2021/10/02 08:28:16;;;;;;;6.85;5.00;;;;;;;;;;5034971;28;20051;-46
2021/10/02 08:30:43;;;;;;;10.55;4.72;;;;;;;;;;5034004;28;20430;-47
2021/10/02 08:33:11;;;;;;;9.95;4.97;;;;;;;;;;5034323;28;20048;-49
2021/10/02 08:35:40;;;;;;;10.48;5.32;;;;;;;;;;5034148;28;20099;-47
2021/10/02 08:38:08;;;;;;;8.18;5.65;;;;;;;;;;5034069;28;20124;-46
2021/10/02 08:40:35;;;;;;;7.20;5.05;;;;;;;;;;5034414;28;20497;-48
2021/10/02 08:43:02;;;;;;;9.45;5.40;;;;;;;;;;5034345;28;20419;-46
2021/10/02 08:45:30;;;;;;;6.95;4.55;;;;;;;;;;5034327;28;20391;-46
2021/10/02 08:47:58;;;;;;;5.95;4.53;;;;;;;;;;5032624;28;20073;-49
2021/10/02 08:50:26;;;;;;;7.22;5.07;;;;;;;;;;5034159;28;20332;-46
2021/10/02 08:52:53;;;;;;;6.15;4.55;;;;;;;;;;5034140;28;20042;-46
2021/10/02 08:55:20;;;;;;;8.55;5.25;;;;;;;;;;5033798;28;20145;-46
2021/10/02 08:57:48;;;;;;;8.02;4.78;;;;;;;;;;5033957;28;20046;-46
2021/10/02 09:00:16;;;;;;;7.53;4.63;;;;;;;;;;5033715;28;20554;-49
2021/10/02 09:02:44;;;;;;;8.35;5.25;;;;;;;;;;5033757;28;20049;-48
2021/10/02 09:05:11;;;;;;;7.13;5.30;;;;;;;;;;5032537;28;20056;-46
2021/10/02 09:07:43;;;;;;;6.93;5.53;;;;;;;;;;5033790;28;20045;-47
2021/10/02 09:10:11;;;;;;;8.60;5.15;;;;;;;;;;5033434;28;20050;-47
2021/10/02 09:12:38;;;;;;;9.60;5.00;;;;;;;;;;5032764;28;20056;-51
2021/10/02 09:15:05;;;;;;;7.85;4.88;;;;;;;;;;5031020;28;20046;-47
2021/10/02 09:17:32;;;;;;;7.20;4.78;;;;;;;;;;5041968;28;20096;-47
2021/10/02 09:20:00;;;;;;;6.72;4.60;;;;;;;;;;5032459;28;20041;-49
2021/10/02 09:22:27;;;;;;;7.20;4.97;;;;;;;;;;5032390;28;20235;-46
2021/10/02 09:24:56;;;;;;;7.13;4.70;;;;;;;;;;5032040;28;20140;-45
2021/10/02 09:27:24;;;;;;;10.48;5.35;;;;;;;;;;5031143;28;20045;-45
2021/10/02 09:29:54;;;;;;;9.73;5.22;;;;;;;;;;5032257;28;20045;-48
2021/10/02 09:32:22;;;;;;;6.45;4.88;;;;;;;;;;5030989;28;20073;-46
2021/10/02 09:34:53;;;;;;;9.05;4.90;;;;;;;;;;5030984;28;20071;-44
2021/10/02 09:37:20;;;;;;;9.38;5.40;;;;;;;;;;5032346;28;20061;-48
2021/10/02 09:39:47;;;;;;;8.10;5.65;;;;;;;;;;5030773;28;20054;-48
2021/10/02 09:42:37;;;;;;;9.02;5.18;;;;;;;;;;5032241;28;20048;-46
2021/10/02 09:45:09;;;;;;;7.95;5.13;;;;;;;;;;5024182;28;20046;-49
2021/10/02 09:47:37;;;;;;;6.20;4.78;;;;;;;;;;5031942;28;20045;-48
2021/10/02 09:50:10;;;;;;;10.73;5.15;;;;;;;;;;5031930;28;20517;-46
2021/10/02 09:52:41;;;;;;;7.88;5.03;;;;;;;;;;5032018;28;20096;-46
2021/10/02 09:55:19;;;;;;;6.38;4.10;;;;;;;;;;5031487;28;20379;-46
2021/10/02 09:57:47;;;;;;;6.15;4.40;;;;;;;;;;5032067;28;20045;-46
2021/10/02 10:00:16;;;;;;;61.35;7.63;;;;;;;;;;5031663;28;20051;-45
2021/10/02 10:02:43;;;;;;;7.65;3.80;;;;;;;;;;5032009;28;20041;-46
2021/10/02 10:05:11;;;;;;;5.65;3.80;;;;;;;;;;5031529;28;20046;-47
2021/10/02 10:07:38;;;;;;;6.18;3.33;;;;;;;;;;5031664;28;20045;-47
2021/10/02 10:10:08;;;;;;;6.07;3.70;;;;;;;;;;4991284;28;1168224;-48
2021/10/02 10:12:35;;;;;;;7.35;3.67;;;;;;;;;;5032565;28;20128;-47
2021/10/02 10:15:02;;;;;;;5.80;3.70;;;;;;;;;;5032313;28;20447;-50
2021/10/02 10:17:32;;;;;;;5.22;3.50;;;;;;;;;;5033114;28;20059;-42
2021/10/02 10:20:05;;;;;;;5.25;3.70;;;;;;;;;;5030998;28;20056;-44
2021/10/02 10:22:32;;;;;;;5.33;3.80;;;;;;;;;;5032358;28;20077;-41
2021/10/02 10:25:00;;;;;;;7.28;3.90;;;;;;;;;;5031796;28;20444;-45
2021/10/02 10:27:30;;;;;;;4.60;3.35;;;;;;;;;;5031908;28;20042;-45
2021/10/02 10:30:23;;;;;;;5.95;3.30;;;;;;;;;;5031937;28;20045;-46
2021/10/02 10:32:58;;;;;;;5.65;3.22;;;;;;;;;;5030215;28;20051;-42
2021/10/02 10:35:27;;;;;;;4.78;3.22;;;;;;;;;;5031726;28;20046;-42
2021/10/02 10:37:54;;;;;;;4.78;2.95;;;;;;;;;;5031595;28;20410;-42
2021/10/02 10:40:21;;;;;;;7.13;3.42;;;;;;;;;;5031698;28;20500;-43
2021/10/02 10:42:47;;;;;;;5.05;3.38;;;;;;;;;;5031639;28;20399;-46
2021/10/02 10:45:14;;;;;;;6.35;3.72;;;;;;;;;;5031211;28;20049;-43
2021/10/02 10:47:42;;;;;;;4.35;3.17;;;;;;;;;;5031479;28;20044;-43
2021/10/02 10:50:09;;;;;;;5.80;3.63;;;;;;;;;;5031956;28;20147;-41
2021/10/02 10:52:37;;;;;;;3.95;2.72;;;;;;;;;;5032260;28;20041;-44
2021/10/02 10:55:15;;;;;;;4.10;2.80;;;;;;;;;;5033893;28;20491;-44
2021/10/02 10:57:51;;;;;;;5.15;3.13;;;;;;;;;;5031835;28;20045;-46
2021/10/02 11:00:37;;;;;;;6.28;3.40;;;;;;;;;;5040393;28;20045;-46
2021/10/02 11:03:04;;;;;;;4.18;2.80;;;;;;;;;;5031480;28;20529;-42
2021/10/02 11:05:34;;;;;;;4.68;2.65;;;;;;;;;;5031521;28;20384;-45
2021/10/02 11:08:02;;;;;;;4.20;2.50;;;;;;;;;;5031267;28;20042;-45
2021/10/02 11:10:41;;;;;;;4.05;2.40;;;;;;;;;;5031357;28;20041;-46
2021/10/02 11:13:08;;;;;;;4.05;2.63;;;;;;;;;;5029895;28;20132;-47
2021/10/02 11:15:35;;;;;;;4.95;2.67;;;;;;;;;;5031254;28;20041;-47
2021/10/02 11:18:02;;;;;;;3.55;2.55;;;;;;;;;;5029607;28;20049;-45
2021/10/02 11:20:31;;;;;;;6.97;2.92;;;;;;;;;;5030886;28;20048;-47
2021/10/02 11:23:16;;;;;;;4.82;2.58;;;;;;;;;;5031098;28;20080;-46
2021/10/02 11:25:43;;;;;;;5.03;2.40;;;;;;;;;;5031359;28;20038;-48
2021/10/02 11:28:25;;;;;;;3.25;2.30;;;;;;;;;;5031054;28;20517;-50
2021/10/02 11:30:53;;;;;;;3.95;2.10;;;;;;;;;;5045254;28;20120;-49
2021/10/02 11:33:28;;;;;;;3.22;2.20;;;;;;;;;;5031081;28;20041;-46
2021/10/02 11:35:55;;;;;;;5.03;2.92;;;;;;;;;;5029511;28;20115;-46
2021/10/02 11:38:37;;;;;;;3.97;2.67;;;;;;;;;;5030722;28;20052;-47
2021/10/02 11:41:24;;;;;;;3.78;2.80;;;;;;;;;;5029251;28;20063;-47
2021/10/02 11:43:53;;;;;;;3.80;2.40;;;;;;;;;;5031000;28;20052;-50
2021/10/02 11:46:24;;;;;;;3.78;2.50;;;;;;;;;;5030842;28;20059;-47
2021/10/02 11:48:52;;;;;;;4.38;2.50;;;;;;;;;;5029801;28;20045;-49
2021/10/02 11:51:26;;;;;;;3.58;2.35;;;;;;;;;;5031369;28;20128;-46
2021/10/02 11:53:57;;;;;;;4.63;2.60;;;;;;;;;;5030513;28;20501;-47
2021/10/02 11:56:28;;;;;;;5.03;2.70;;;;;;;;;;5031408;28;20411;-50
2021/10/02 11:58:56;;;;;;;3.72;2.80;;;;;;;;;;5034853;28;20088;-49
2021/10/02 12:01:24;;;;;;;4.90;2.78;;;;;;;;;;5035083;28;20462;-48
2021/10/02 12:04:08;;;;;;;3.42;2.60;;;;;;;;;;5034859;28;20144;-50
2021/10/02 12:06:40;;;;;;;4.40;2.85;;;;;;;;;;5034799;28;20046;-48
2021/10/02 12:09:14;;;;;;;4.90;3.17;;;;;;;;;;5043364;28;20462;-47
2021/10/02 12:11:42;;;;;;;7.85;3.25;;;;;;;;;;5035018;28;20566;-48
2021/10/02 12:14:12;;;;;;;4.07;2.90;;;;;;;;;;5034682;28;20044;-49
2021/10/02 12:16:38;;;;;;;3.63;2.72;;;;;;;;;;5033617;28;20461;-45
2021/10/02 12:19:10;;;;;;;5.93;3.05;;;;;;;;;;5034690;28;20426;-49
2021/10/02 12:21:36;;;;;;;4.10;2.90;;;;;;;;;;5034918;28;20429;-46
2021/10/02 12:24:05;;;;;;;5.22;2.88;;;;;;;;;;5034566;28;20132;-48
2021/10/02 12:26:37;;;;;;;4.70;3.03;;;;;;;;;;5034584;28;20145;-48
2021/10/02 12:29:04;;;;;;;3.60;2.72;;;;;;;;;;5033814;28;20045;-46
2021/10/02 12:31:40;;;;;;;5.38;4.22;;;;;;;;;;5033706;28;20065;-44
2021/10/02 12:34:19;;;;;;;4.00;2.90;;;;;;;;;;5033439;28;20049;-46
2021/10/02 12:36:51;;;;;;;5.07;2.80;;;;;;;;;;5034569;28;20107;-47
2021/10/02 12:39:18;;;;;;;5.93;3.13;;;;;;;;;;5034009;28;20053;-47
2021/10/02 12:41:46;;;;;;;5.90;3.08;;;;;;;;;;5034305;28;20049;-46
2021/10/02 12:44:16;;;;;;;3.55;2.92;;;;;;;;;;5034379;28;20044;-47
2021/10/02 12:46:43;;;;;;;4.35;2.80;;;;;;;;;;5034687;28;20046;-46
2021/10/02 12:49:11;;;;;;;4.80;2.85;;;;;;;;;;5034116;28;20049;-49
2021/10/02 12:51:39;;;;;;;3.72;2.90;;;;;;;;;;5034260;28;20455;-47
2021/10/02 12:54:06;;;;;;;3.85;2.78;;;;;;;;;;5033867;28;20046;-47
2021/10/02 12:56:33;;;;;;;4.28;3.15;;;;;;;;;;5034028;28;20120;-45
2021/10/02 12:59:13;;;;;;;3.95;2.88;;;;;;;;;;5033896;28;20041;-44
2021/10/02 13:01:44;;;;;;;4.72;2.90;;;;;;;;;;5034234;28;20450;-46
2021/10/02 13:04:30;;;;;;;3.58;2.85;;;;;;;;;;5034015;28;20061;-44
2021/10/02 13:06:57;;;;;;;6.15;3.20;;;;;;;;;;5034303;28;20382;-44
2021/10/02 13:09:23;;;;;;;5.63;3.10;;;;;;;;;;5034022;28;20041;-44
2021/10/02 13:11:50;;;;;;;4.82;3.20;;;;;;;;;;5034240;28;20356;-45
2021/10/02 13:14:43;;;;;;;4.43;3.25;;;;;;;;;;5033771;28;20041;-45
2021/10/02 13:17:10;;;;;;;;;;;;;;;;;;5032569;28;20483;-44
2021/10/02 13:19:37;;;;;;;3.72;2.85;;;;;;;;;;5033655;28;20011;-46
2021/10/02 13:22:14;;;;;;;6.40;3.05;;;;;;;;;;5032522;28;20111;-46
2021/10/02 13:24:59;;;;;;;3.67;3.05;;;;;;;;;;5033379;28;20095;-49
2021/10/02 13:27:30;;;;;;;4.70;2.97;;;;;;;;;;5033449;28;20519;-46
2021/10/02 13:30:08;;;;;;;4.85;2.95;;;;;;;;;;5033203;28;20046;-48
2021/10/02 13:32:35;;;;;;;4.78;2.90;;;;;;;;;;5032145;28;20069;-45
2021/10/02 13:35:03;;;;;;;5.82;2.95;;;;;;;;;;5033162;28;20048;-48
2021/10/02 13:37:30;;;;;;;4.65;2.67;;;;;;;;;;5033066;28;20132;-48
2021/10/02 13:40:01;;;;;;;4.47;3.28;;;;;;;;;;5033530;28;20476;-46
2021/10/02 13:42:28;;;;;;;3.60;2.95;;;;;;;;;;5033328;28;20071;-46
2021/10/02 13:44:56;;;;;;;4.45;2.70;;;;;;;;;;5032893;28;20044;-48
2021/10/02 13:47:24;;;;;;;4.75;3.05;;;;;;;;;;5033460;28;20065;-47
2021/10/02 13:49:51;;;;;;;3.72;2.83;;;;;;;;;;5031819;28;20049;-47
2021/10/02 13:52:22;;;;;;;3.05;2.60;;;;;;;;;;5033232;28;20128;-45
2021/10/02 13:54:48;;;;;;;3.80;2.85;;;;;;;;;;5043330;28;20351;-48
2021/10/02 13:57:15;;;;;;;4.30;2.58;;;;;;;;;;5033000;28;20045;-46
2021/10/02 13:59:42;;;;;;;3.45;2.70;;;;;;;;;;5032681;28;20045;-46
2021/10/02 14:02:09;;;;;;;4.60;3.03;;;;;;;;;;5031646;28;20125;-48
2021/10/02 14:04:36;;;;;;;3.95;2.90;;;;;;;;;;5032579;28;20132;-47
2021/10/02 14:07:04;;;;;;;5.30;3.10;;;;;;;;;;5015696;28;20136;-48
2021/10/02 14:09:31;;;;;;;6.88;3.25;;;;;;;;;;5032668;28;20530;-48
2021/10/02 14:11:58;;;;;;;4.28;3.15;;;;;;;;;;5033041;28;20356;-47
2021/10/02 14:14:25;;;;;;;4.32;2.70;;;;;;;;;;5032468;28;20531;-43
2021/10/02 14:16:53;;;;;;;4.88;3.10;;;;;;;;;;5034401;28;20434;-46
2021/10/02 14:19:20;;;;;;;4.05;2.58;;;;;;;;;;5031881;28;20095;-46
2021/10/02 14:21:46;;;;;;;3.78;2.42;;;;;;;;;;5031458;28;20046;-46
2021/10/02 14:24:13;;;;;;;6.93;2.95;;;;;;;;;;5031226;28;20458;-45
2021/10/02 14:26:40;;;;;;;6.97;3.88;;;;;;;;;;5027531;28;20088;-46
2021/10/02 14:29:07;;;;;;;6.18;4.50;;;;;;;;;;5030589;28;20171;-47
2021/10/02 14:31:34;;;;;;;4.18;3.10;;;;;;;;;;5032605;28;20506;-47
2021/10/02 14:34:02;;;;;;;4.75;3.42;;;;;;;;;;5030955;28;20491;-50
2021/10/02 14:36:29;;;;;;;5.28;3.53;;;;;;;;;;5031130;28;20049;-47
2021/10/02 14:38:56;;;;;;;5.68;3.95;;;;;;;;;;5045953;28;20045;-47
2021/10/02 14:41:25;;;;;;;5.38;3.33;;;;;;;;;;5030775;28;20520;-47
2021/10/02 14:43:51;;;;;;;4.68;2.90;;;;;;;;;;5014177;28;20107;-47
2021/10/02 14:46:19;;;;;;;4.63;3.22;;;;;;;;;;5030693;28;20037;-46
2021/10/02 14:48:46;;;;;;;5.65;3.55;;;;;;;;;;5031774;28;20052;-46
2021/10/02 14:51:13;;;;;;;8.27;3.10;;;;;;;;;;5032178;28;20037;-43
2021/10/02 14:53:41;;;;;;;5.88;3.95;;;;;;;;;;5031485;28;20128;-44
2021/10/02 14:56:10;;;;;;;6.35;3.80;;;;;;;;;;5032227;28;20041;-44
2021/10/02 14:58:37;;;;;;;6.47;3.30;;;;;;;;;;5031491;28;20474;-45
2021/10/02 15:01:04;;;;;;;5.88;3.78;;;;;;;;;;5032078;28;20053;-46
2021/10/02 15:03:31;;;;;;;5.25;3.38;;;;;;;;;;5031813;28;20144;-47
2021/10/02 15:05:58;;;;;;;5.38;3.67;;;;;;;;;;5031692;28;20053;-49
2021/10/02 15:08:26;;;;;;;4.82;3.65;;;;;;;;;;5034125;28;20041;-48
2021/10/02 15:10:53;;;;;;;6.57;3.47;;;;;;;;;;5066821;23;20081;-47
2021/10/02 15:13:24;;;;;;;6.00;3.90;;;;;;;;;;5051244;28;20163;-49
2021/10/02 15:15:57;;;;;;;5.47;3.65;;;;;;;;;;5050693;28;20069;-48
2021/10/02 15:18:24;;;;;;;4.78;3.40;;;;;;;;;;5039777;28;20151;-44
2021/10/02 15:20:53;;;;;;;5.10;3.55;;;;;;;;;;5027250;28;20088;-44
2021/10/02 15:23:24;;;;;;;4.88;3.47;;;;;;;;;;5011755;28;20045;-49
2021/10/02 15:25:54;;;;;;;5.53;3.25;;;;;;;;;;5023139;28;20137;-47
2021/10/02 15:28:23;;;;;;;7.25;3.55;;;;;;;;;;5032473;28;20041;-50
2021/10/02 15:30:54;;;;;;;4.28;3.20;;;;;;;;;;5029646;28;20148;-44
2021/10/02 15:33:21;;;;;;;6.90;3.22;;;;;;;;;;5031117;28;20037;-43
2021/10/02 15:35:51;;;;;;;5.85;3.72;;;;;;;;;;5030836;28;20065;-46
2021/10/02 15:38:19;;;;;;;6.38;3.20;;;;;;;;;;5046340;28;20037;-46
2021/10/02 15:40:46;;;;;;;7.78;3.90;;;;;;;;;;5032329;28;20065;-45
2021/10/02 15:43:13;;;;;;;5.28;3.55;;;;;;;;;;5030928;28;20050;-48
2021/10/02 15:45:44;;;;;;;4.72;3.90;;;;;;;;;;5031011;28;20051;-47